AYMH/HGU METAR and TAF weather

Enter ICAO airport designator
Station Type Date Time Source
AYMH METAR 2018/01/21 22:00 UTC NOAA

AYMH 212200Z 00000KT 9999 ST005 SCT015 17/16 Q1017=


Station Type Date Time Source
AYMH Decoded METAR 2018/01/21 22:00 UTC NOAA

Station name not available
Jan 21, 2018 - 05:00 PM EST / 2018.01.21 2200 UTC
Wind: Calm:0
Visibility: greater than 7 mile(s):0
Sky conditions: partly cloudy
Temperature: 62 F (17 C)
Dew Point: 60 F (16 C)
Relative Humidity: 93%
Pressure (altimeter): 30.03 in. Hg (1017 hPa)
ob: AYMH 212200Z 00000KT 9999 ST005 SCT015 17/16 Q1017=
cycle: 22

Station Type Date Time Source
AYMH TAF UTC NOAA

Error!


Example: see airport list